createdAt,value
2017-08-12T00:00:14.927Z,20
2017-08-12T00:02:09.204Z,20
2017-08-12T00:04:09.620Z,20
2017-08-12T00:06:19.974Z,20
2017-08-12T00:08:09.207Z,20
2017-08-12T00:10:06.917Z,20
2017-08-12T00:12:09.278Z,20
2017-08-12T00:14:07.036Z,20
2017-08-12T00:16:06.977Z,20
2017-08-12T00:18:06.903Z,20
2017-08-12T00:20:11.701Z,20
2017-08-12T00:22:06.705Z,20
2017-08-12T00:24:06.429Z,20
2017-08-12T00:26:10.669Z,20
2017-08-12T00:28:10.324Z,20
2017-08-12T00:30:06.987Z,20
2017-08-12T00:32:09.241Z,20
2017-08-12T00:34:07.108Z,20
2017-08-12T00:36:09.314Z,20
2017-08-12T00:38:06.968Z,20
2017-08-12T00:40:06.787Z,20
2017-08-12T00:42:06.540Z,20
2017-08-12T00:44:09.907Z,20
2017-08-12T00:46:09.322Z,20
2017-08-12T00:48:07.048Z,20
2017-08-12T00:50:06.757Z,20
2017-08-12T00:52:09.324Z,20
2017-08-12T00:54:07.014Z,20
2017-08-12T00:56:06.679Z,20
2017-08-12T00:58:07.566Z,20
2017-08-12T01:00:07.468Z,20
2017-08-12T01:02:07.181Z,20
2017-08-12T01:04:09.527Z,20
2017-08-12T01:06:07.266Z,20
2017-08-12T01:08:06.946Z,20
2017-08-12T01:10:06.821Z,20
2017-08-12T01:12:06.506Z,20
2017-08-12T01:14:07.201Z,20
2017-08-12T01:16:06.956Z,20
2017-08-12T01:18:09.404Z,20
2017-08-12T01:20:07.155Z,20
2017-08-12T01:22:11.926Z,20
2017-08-12T01:24:06.616Z,20
2017-08-12T01:26:07.286Z,20
2017-08-12T01:28:07.002Z,20
2017-08-12T01:30:09.310Z,20
2017-08-12T01:32:07.084Z,20
2017-08-12T01:34:09.399Z,20
2017-08-12T01:36:07.120Z,20
2017-08-12T01:38:09.380Z,20
2017-08-12T01:40:19.947Z,20
2017-08-12T01:42:06.648Z,20
2017-08-12T01:44:09.844Z,20
2017-08-12T01:46:06.717Z,20
2017-08-12T01:48:06.627Z,20
2017-08-12T01:50:07.288Z,20
2017-08-12T01:52:09.700Z,20
2017-08-12T01:54:08.923Z,20
2017-08-12T01:56:11.704Z,20
2017-08-12T01:58:06.583Z,20
2017-08-12T02:00:07.260Z,20
2017-08-12T02:02:06.899Z,20
2017-08-12T02:04:06.830Z,20
2017-08-12T02:06:09.048Z,20
2017-08-12T02:08:06.765Z,20
2017-08-12T02:10:06.481Z,20
2017-08-12T02:12:07.170Z,20
2017-08-12T02:14:06.832Z,20
2017-08-12T02:16:06.820Z,20
2017-08-12T02:18:16.884Z,20
2017-08-12T02:20:06.745Z,20
2017-08-12T02:22:06.642Z,20
2017-08-12T02:24:09.896Z,20
2017-08-12T02:26:06.628Z,20
2017-08-12T02:28:09.905Z,20
2017-08-12T02:30:09.158Z,20
2017-08-12T02:32:14.529Z,20
2017-08-12T02:34:07.593Z,20
2017-08-12T02:36:10.108Z,20
2017-08-12T02:38:06.909Z,20
2017-08-12T02:40:06.919Z,20
2017-08-12T02:42:11.731Z,20
2017-08-12T02:44:08.920Z,20
2017-08-12T02:46:06.795Z,20
2017-08-12T02:48:06.524Z,20
2017-08-12T02:50:12.282Z,20
2017-08-12T02:52:14.891Z,20
2017-08-12T02:54:09.133Z,20
2017-08-12T02:56:14.428Z,20
2017-08-12T02:58:07.298Z,20
2017-08-12T03:00:06.995Z,20
2017-08-12T03:02:06.717Z,20
2017-08-12T03:04:06.529Z,20
2017-08-12T03:06:07.394Z,20
2017-08-12T03:08:12.209Z,20
2017-08-12T03:10:07.108Z,20
2017-08-12T03:12:06.820Z,20
2017-08-12T03:14:06.547Z,20
2017-08-12T03:16:07.432Z,20
2017-08-12T03:18:07.344Z,20
2017-08-12T03:20:07.034Z,20
2017-08-12T03:22:06.773Z,20
2017-08-12T03:24:09.045Z,20
2017-08-12T03:26:06.769Z,20
2017-08-12T03:28:09.237Z,20
2017-08-12T03:30:06.983Z,20
2017-08-12T03:32:14.351Z,20
2017-08-12T03:34:14.854Z,20
2017-08-12T03:36:06.535Z,20
2017-08-12T03:38:07.313Z,20
2017-08-12T03:40:07.162Z,20
2017-08-12T03:42:06.900Z,20
2017-08-12T03:44:06.667Z,20
2017-08-12T03:46:12.729Z,20
2017-08-12T03:48:16.534Z,20
2017-08-12T03:50:07.277Z,20
2017-08-12T03:52:07.212Z,20
2017-08-12T03:54:12.022Z,20
2017-08-12T03:56:06.903Z,20
2017-08-12T03:58:06.815Z,20
2017-08-12T04:00:06.561Z,20
2017-08-12T04:02:07.276Z,20
2017-08-12T04:04:09.716Z,20
2017-08-12T04:06:06.383Z,20
2017-08-12T04:08:07.047Z,20
2017-08-12T04:10:14.408Z,20
2017-08-12T04:12:07.252Z,20
2017-08-12T04:14:06.945Z,20
2017-08-12T04:16:12.057Z,20
2017-08-12T04:18:07.013Z,20
2017-08-12T04:20:06.748Z,20
2017-08-12T04:22:06.719Z,20
2017-08-12T04:24:06.426Z,20
2017-08-12T04:26:07.175Z,20
2017-08-12T04:28:07.061Z,20
2017-08-12T04:30:06.729Z,20
2017-08-12T04:32:09.011Z,20
2017-08-12T04:34:09.448Z,20
2017-08-12T04:36:09.740Z,20
2017-08-12T04:38:08.991Z,20
2017-08-12T04:40:09.311Z,20
2017-08-12T04:42:07.015Z,20
2017-08-12T04:44:14.660Z,20
2017-08-12T04:46:09.957Z,20
2017-08-12T04:48:06.695Z,20
2017-08-12T04:50:06.429Z,20
2017-08-12T04:52:11.650Z,20
2017-08-12T04:54:09.595Z,20
2017-08-12T04:56:12.369Z,20
2017-08-12T04:58:07.169Z,20
2017-08-12T05:00:07.087Z,20
2017-08-12T05:02:16.881Z,20
2017-08-12T05:04:16.875Z,20
2017-08-12T05:06:06.593Z,20
2017-08-12T05:08:07.337Z,20
2017-08-12T05:10:14.807Z,20
2017-08-12T05:12:06.539Z,20
2017-08-12T05:14:14.877Z,20
2017-08-12T05:16:11.836Z,20
2017-08-12T05:18:11.847Z,20
2017-08-12T05:20:11.685Z,20
2017-08-12T05:22:09.020Z,20
2017-08-12T05:24:06.771Z,20
2017-08-12T05:26:06.569Z,20
2017-08-12T05:28:07.459Z,20
2017-08-12T05:30:09.917Z,20
2017-08-12T05:32:06.953Z,20
2017-08-12T05:34:06.706Z,20
2017-08-12T05:36:06.468Z,20
2017-08-12T05:38:07.251Z,20
2017-08-12T05:40:07.453Z,20
2017-08-12T05:42:07.280Z,20
2017-08-12T05:44:09.649Z,20
2017-08-12T05:46:07.497Z,20
2017-08-12T05:48:07.591Z,20
2017-08-12T05:50:07.455Z,20
2017-08-12T05:52:10.007Z,20
2017-08-12T05:54:06.782Z,20
2017-08-12T05:56:07.554Z,20
2017-08-12T05:58:10.287Z,20
2017-08-12T06:00:09.562Z,20
2017-08-12T06:02:07.324Z,20
2017-08-12T06:04:07.394Z,20
2017-08-12T06:06:09.720Z,20
2017-08-12T06:08:06.433Z,20
2017-08-12T06:10:07.472Z,20
2017-08-12T06:12:07.293Z,20
2017-08-12T06:14:10.244Z,20
2017-08-12T06:16:07.098Z,20
2017-08-12T06:18:08.487Z,20
2017-08-12T06:20:13.912Z,20
2017-08-12T06:22:09.310Z,20
2017-08-12T06:24:07.209Z,20
2017-08-12T06:26:07.090Z,20
2017-08-12T06:28:09.365Z,20
2017-08-12T06:30:09.585Z,20
2017-08-12T06:32:07.356Z,20
2017-08-12T06:34:09.926Z,20
2017-08-12T06:36:06.951Z,20
2017-08-12T06:38:06.669Z,20
2017-08-12T06:40:12.565Z,20
2017-08-12T06:42:17.418Z,20
2017-08-12T06:44:17.272Z,20
2017-08-12T06:46:07.057Z,20
2017-08-12T06:48:08.005Z,20
2017-08-12T06:50:09.300Z,20
2017-08-12T06:52:08.485Z,20
2017-08-12T06:54:10.597Z,20
2017-08-12T06:56:07.333Z,20
2017-08-12T06:58:07.389Z,20
2017-08-12T07:00:17.217Z,20
2017-08-12T07:02:06.956Z,20
2017-08-12T07:04:11.825Z,20
2017-08-12T07:06:14.061Z,20
2017-08-12T07:08:06.897Z,20
2017-08-12T07:10:06.646Z,20
2017-08-12T07:12:12.449Z,20
2017-08-12T07:14:08.271Z,20
2017-08-12T07:16:07.120Z,20
2017-08-12T07:18:09.574Z,20
2017-08-12T07:20:08.429Z,20
2017-08-12T07:22:07.422Z,20
2017-08-12T07:24:09.972Z,20
2017-08-12T07:26:09.228Z,20
2017-08-12T07:28:19.721Z,20
2017-08-12T07:30:06.425Z,20
2017-08-12T07:32:07.156Z,20
2017-08-12T07:34:11.992Z,20
2017-08-12T07:36:06.677Z,20
2017-08-12T07:38:09.923Z,20
2017-08-12T07:40:06.925Z,20
2017-08-12T07:42:06.720Z,20
2017-08-12T07:44:06.441Z,20
2017-08-12T07:46:09.712Z,20
2017-08-12T07:48:09.023Z,20
2017-08-12T07:50:06.776Z,20
2017-08-12T07:52:06.658Z,20
2017-08-12T07:54:07.434Z,20
2017-08-12T07:56:09.768Z,20
2017-08-12T07:58:08.097Z,20
2017-08-12T08:00:07.805Z,20
2017-08-12T08:02:07.557Z,20
2017-08-12T08:04:15.245Z,20
2017-08-12T08:06:06.961Z,20
2017-08-12T08:08:11.713Z,20
2017-08-12T08:10:06.748Z,20
2017-08-12T08:12:06.580Z,20
2017-08-12T08:14:07.787Z,20
2017-08-12T08:16:06.838Z,20
2017-08-12T08:18:07.843Z,20
2017-08-12T08:20:12.523Z,20
2017-08-12T08:22:08.930Z,20
2017-08-12T08:24:09.201Z,20
2017-08-12T08:26:06.926Z,20
2017-08-12T08:28:06.918Z,20
2017-08-12T08:30:11.730Z,20
2017-08-12T08:32:08.987Z,20
2017-08-12T08:34:06.879Z,20
2017-08-12T08:36:06.552Z,20
2017-08-12T08:38:07.241Z,20
2017-08-12T08:40:12.104Z,20
2017-08-12T08:42:09.288Z,20
2017-08-12T08:44:07.034Z,20
2017-08-12T08:46:14.495Z,20
2017-08-12T08:48:07.229Z,20
2017-08-12T08:50:06.994Z,20
2017-08-12T08:52:09.243Z,20
2017-08-12T08:54:09.515Z,20
2017-08-12T08:56:12.273Z,20
2017-08-12T08:58:17.146Z,20
2017-08-12T09:00:14.500Z,20
2017-08-12T09:02:07.180Z,20
2017-08-12T09:04:10.508Z,20
2017-08-12T09:06:09.509Z,20
2017-08-12T09:08:07.445Z,20
2017-08-12T09:10:11.567Z,20
2017-08-12T09:12:09.753Z,20
2017-08-12T09:14:06.453Z,20
2017-08-12T09:16:07.475Z,20
2017-08-12T09:18:07.443Z,20
2017-08-12T09:20:07.221Z,20
2017-08-12T09:22:09.577Z,20
2017-08-12T09:24:07.284Z,20
2017-08-12T09:26:09.587Z,20
2017-08-12T09:28:07.457Z,20
2017-08-12T09:30:07.249Z,20
2017-08-12T09:32:07.256Z,20
2017-08-12T09:34:07.330Z,20
2017-08-12T09:36:09.662Z,20
2017-08-12T09:38:07.469Z,20
2017-08-12T09:40:19.979Z,20
2017-08-12T09:42:06.677Z,20
2017-08-12T09:44:07.393Z,20
2017-08-12T09:46:12.557Z,20
2017-08-12T09:48:07.294Z,20
2017-08-12T09:50:12.070Z,20
2017-08-12T09:52:06.840Z,20
2017-08-12T09:54:08.645Z,20
2017-08-12T09:56:09.090Z,20
2017-08-12T09:58:09.514Z,20
2017-08-12T10:00:14.809Z,20
2017-08-12T10:02:06.537Z,20
2017-08-12T10:04:07.322Z,20
2017-08-12T10:06:07.351Z,20
2017-08-12T10:08:09.655Z,20
2017-08-12T10:10:07.448Z,20
2017-08-12T10:12:07.188Z,20
2017-08-12T10:14:06.935Z,20
2017-08-12T10:16:06.885Z,20
2017-08-12T10:18:09.446Z,20
2017-08-12T10:20:12.680Z,20
2017-08-12T10:22:12.900Z,20
2017-08-12T10:24:06.555Z,20
2017-08-12T10:26:09.826Z,20
2017-08-12T10:28:06.721Z,20
2017-08-12T10:30:08.947Z,20
2017-08-12T10:32:06.899Z,20
2017-08-12T10:34:06.826Z,20
2017-08-12T10:36:06.762Z,20
2017-08-12T10:38:19.148Z,20
2017-08-12T10:40:17.082Z,20
2017-08-12T10:42:06.853Z,20
2017-08-12T10:44:06.588Z,20
2017-08-12T10:46:09.820Z,20
2017-08-12T10:48:11.588Z,20
2017-08-12T10:50:07.288Z,20
2017-08-12T10:52:09.652Z,20
2017-08-12T10:54:17.469Z,20
2017-08-12T10:56:07.224Z,20
2017-08-12T10:58:07.205Z,20
2017-08-12T11:00:06.914Z,20
2017-08-12T11:02:06.690Z,20
2017-08-12T11:04:09.269Z,20
2017-08-12T11:06:09.540Z,20
2017-08-12T11:08:08.625Z,20
2017-08-12T11:10:10.398Z,20
2017-08-12T11:12:07.171Z,20
2017-08-12T11:14:09.714Z,20
2017-08-12T11:16:14.494Z,20
2017-08-12T11:18:06.436Z,20
2017-08-12T11:20:07.202Z,20
2017-08-12T11:22:07.209Z,20
2017-08-12T11:24:06.782Z,20
2017-08-12T11:26:06.455Z,20
2017-08-12T11:28:12.398Z,20
2017-08-12T11:30:07.097Z,20
2017-08-12T11:32:11.990Z,20
2017-08-12T11:34:11.792Z,20
2017-08-12T11:36:11.784Z,20
2017-08-12T11:38:09.100Z,20
2017-08-12T11:40:06.973Z,20
2017-08-12T11:42:09.277Z,20
2017-08-12T11:44:09.483Z,20
2017-08-12T11:46:09.781Z,20
2017-08-12T11:48:06.490Z,20
2017-08-12T11:50:07.574Z,20
2017-08-12T11:52:09.774Z,20
2017-08-12T11:54:06.602Z,20
2017-08-12T11:56:15.009Z,20
2017-08-12T11:58:06.818Z,20
2017-08-12T12:00:09.056Z,20
2017-08-12T12:02:07.128Z,20
2017-08-12T12:04:14.684Z,20
2017-08-12T12:06:10.165Z,20
2017-08-12T12:08:06.890Z,20
2017-08-12T12:10:09.176Z,20
2017-08-12T12:12:32.484Z,20
2017-08-12T12:14:07.330Z,20
2017-08-12T12:16:09.593Z,20
2017-08-12T12:18:09.012Z,20
2017-08-12T12:20:06.960Z,20
2017-08-12T12:22:06.658Z,20
2017-08-12T12:24:09.881Z,20
2017-08-12T12:26:06.592Z,20
2017-08-12T12:28:10.021Z,20
2017-08-12T12:30:11.792Z,20
2017-08-12T12:32:09.032Z,20
2017-08-12T12:34:07.002Z,20
2017-08-12T12:36:11.773Z,20
2017-08-12T12:38:19.217Z,20
2017-08-12T12:40:07.064Z,20
2017-08-12T12:42:07.025Z,20
2017-08-12T12:44:06.775Z,20
2017-08-12T12:46:09.059Z,20
2017-08-12T12:48:10.307Z,20
2017-08-12T12:50:07.002Z,20
2017-08-12T12:52:06.692Z,20
2017-08-12T12:54:06.442Z,20
2017-08-12T12:56:09.991Z,20
2017-08-12T12:58:14.527Z,20
2017-08-12T13:00:09.882Z,20
2017-08-12T13:02:14.253Z,20
2017-08-12T13:04:06.970Z,20
2017-08-12T13:06:06.948Z,20
2017-08-12T13:08:12.038Z,20
2017-08-12T13:10:06.781Z,20
2017-08-12T13:12:06.456Z,20
2017-08-12T13:14:07.371Z,20
2017-08-12T13:16:09.928Z,20
2017-08-12T13:18:06.996Z,20
2017-08-12T13:20:06.864Z,20
2017-08-12T13:22:11.644Z,20
2017-08-12T13:24:07.553Z,20
2017-08-12T13:26:07.253Z,20
2017-08-12T13:28:06.979Z,20
2017-08-12T13:30:09.221Z,20
2017-08-12T13:32:12.219Z,20
2017-08-12T13:34:06.895Z,20
2017-08-12T13:36:09.434Z,21
2017-08-12T13:38:07.189Z,20
2017-08-12T13:40:13.163Z,20
2017-08-12T13:42:06.916Z,20
2017-08-12T13:44:06.609Z,21
2017-08-12T13:46:12.430Z,20
2017-08-12T13:48:09.798Z,20
2017-08-12T13:50:06.563Z,20
2017-08-12T13:52:07.320Z,20
2017-08-12T13:54:07.058Z,21
2017-08-12T13:56:06.816Z,21
2017-08-12T13:58:07.143Z,21
2017-08-12T14:00:16.932Z,23
2017-08-12T14:02:06.687Z,23
2017-08-12T14:04:06.570Z,23
2017-08-12T14:06:09.761Z,23
2017-08-12T14:08:11.576Z,23
2017-08-12T14:10:07.461Z,22
2017-08-12T14:12:07.193Z,23
2017-08-12T14:14:06.932Z,24
2017-08-12T14:16:07.084Z,24
2017-08-12T14:18:09.764Z,25
2017-08-12T14:20:09.149Z,25
2017-08-12T14:22:14.638Z,25
2017-08-12T14:24:07.356Z,25
2017-08-12T14:26:07.076Z,25
2017-08-12T14:28:06.968Z,26
2017-08-12T14:30:06.791Z,26
2017-08-12T14:32:06.471Z,26
2017-08-12T14:34:12.293Z,26
2017-08-12T14:36:09.675Z,26
2017-08-12T14:38:07.433Z,26
2017-08-12T14:40:07.304Z,26
2017-08-12T14:42:07.037Z,26
2017-08-12T14:44:16.880Z,26
2017-08-12T14:46:06.908Z,26
2017-08-12T14:48:06.638Z,26
2017-08-12T14:50:07.303Z,26
2017-08-12T14:52:07.067Z,26
2017-08-12T14:54:07.781Z,26
2017-08-12T14:56:06.537Z,26
2017-08-12T14:58:09.824Z,26
2017-08-12T15:00:09.109Z,26
2017-08-12T15:02:06.788Z,26
2017-08-12T15:04:06.494Z,26
2017-08-12T15:06:09.743Z,26
2017-08-12T15:08:06.538Z,26
2017-08-12T15:10:09.784Z,26
2017-08-12T15:12:09.025Z,25
2017-08-12T15:14:09.336Z,24
2017-08-12T15:16:09.669Z,25
2017-08-12T15:18:06.637Z,24
2017-08-12T15:20:12.510Z,25
2017-08-12T15:22:07.344Z,25
2017-08-12T15:24:09.714Z,25
2017-08-12T15:26:09.060Z,26
2017-08-12T15:28:06.794Z,24
2017-08-12T15:30:06.554Z,26
2017-08-12T15:32:07.234Z,26
2017-08-12T15:34:12.212Z,26
2017-08-12T15:36:09.666Z,26
2017-08-12T15:38:07.374Z,25
2017-08-12T15:40:07.099Z,26
2017-08-12T15:42:10.390Z,26
2017-08-12T15:44:09.640Z,26
2017-08-12T15:46:07.636Z,25
2017-08-12T15:48:22.496Z,26
2017-08-12T15:50:09.740Z,26
2017-08-12T15:52:09.025Z,26
2017-08-12T15:54:09.268Z,26
2017-08-12T15:56:19.814Z,26
2017-08-12T15:58:11.934Z,26
2017-08-12T16:00:06.700Z,26
2017-08-12T16:02:06.433Z,26
2017-08-12T16:04:14.739Z,26
2017-08-12T16:06:06.535Z,27
2017-08-12T16:08:12.307Z,31
2017-08-12T16:10:14.645Z,31
2017-08-12T16:12:09.907Z,31
2017-08-12T16:14:11.724Z,31
2017-08-12T16:16:09.257Z,31
2017-08-12T16:18:09.653Z,31
2017-08-12T16:20:07.358Z,29
2017-08-12T16:22:09.978Z,31
2017-08-12T16:24:11.772Z,31
2017-08-12T16:26:06.494Z,31
2017-08-12T16:28:07.312Z,31
2017-08-12T16:30:12.108Z,31
2017-08-12T16:32:09.364Z,31
2017-08-12T16:34:12.189Z,31
2017-08-12T16:36:09.580Z,31
2017-08-12T16:38:07.314Z,31
2017-08-12T16:40:12.235Z,31
2017-08-12T16:42:07.838Z,31
2017-08-12T16:44:11.705Z,31
2017-08-12T16:46:06.470Z,31
2017-08-12T16:48:07.160Z,31
2017-08-12T16:50:09.421Z,31
2017-08-12T16:52:07.426Z,31
2017-08-12T16:54:09.693Z,31
2017-08-12T16:56:06.399Z,31
2017-08-12T16:58:07.336Z,31
2017-08-12T17:00:09.670Z,32
2017-08-12T17:02:07.342Z,32
2017-08-12T17:04:07.313Z,32
2017-08-12T17:06:09.485Z,32
2017-08-12T17:08:07.227Z,32
2017-08-12T17:10:07.114Z,32
2017-08-12T17:12:09.369Z,32
2017-08-12T17:14:07.130Z,32
2017-08-12T17:16:07.082Z,32
2017-08-12T17:18:09.560Z,32
2017-08-12T17:20:07.265Z,32
2017-08-12T17:22:12.181Z,32
2017-08-12T17:24:11.924Z,32
2017-08-12T17:26:06.658Z,32
2017-08-12T17:28:10.230Z,32
2017-08-12T17:30:06.972Z,32
2017-08-12T17:32:06.916Z,32
2017-08-12T17:34:14.460Z,32
2017-08-12T17:36:12.244Z,32
2017-08-12T17:38:09.454Z,32
2017-08-12T17:40:07.167Z,32
2017-08-12T17:42:09.418Z,32
2017-08-12T17:44:07.125Z,32
2017-08-12T17:46:07.089Z,32
2017-08-12T17:48:09.477Z,32
2017-08-12T17:50:07.200Z,32
2017-08-12T17:52:09.572Z,32
2017-08-12T17:54:09.818Z,32
2017-08-12T17:56:07.594Z,32
2017-08-12T17:58:07.617Z,32
2017-08-12T18:00:07.344Z,32
2017-08-12T18:02:07.056Z,32
2017-08-12T18:04:06.908Z,32
2017-08-12T18:06:06.728Z,32
2017-08-12T18:08:06.431Z,32
2017-08-12T18:10:07.420Z,32
2017-08-12T18:12:09.753Z,32
2017-08-12T18:14:06.754Z,32
2017-08-12T18:16:11.722Z,32
2017-08-12T18:18:06.893Z,32
2017-08-12T18:20:09.156Z,32
2017-08-12T18:22:06.907Z,32
2017-08-12T18:24:06.663Z,32
2017-08-12T18:26:07.392Z,32
2017-08-12T18:28:07.209Z,32
2017-08-12T18:30:06.957Z,32
2017-08-12T18:32:07.102Z,32
2017-08-12T18:34:06.804Z,32
2017-08-12T18:36:16.775Z,32
2017-08-12T18:38:11.527Z,32
2017-08-12T18:40:12.355Z,32
2017-08-12T18:42:07.114Z,32
2017-08-12T18:44:14.456Z,32
2017-08-12T18:46:12.544Z,32
2017-08-12T18:48:09.837Z,32
2017-08-12T18:50:06.550Z,32
2017-08-12T18:52:15.119Z,31
2017-08-12T18:54:06.813Z,31
2017-08-12T18:56:06.540Z,31
2017-08-12T18:58:08.014Z,31
2017-08-12T19:00:09.242Z,31
2017-08-12T19:02:09.502Z,31
2017-08-12T19:04:07.455Z,31
2017-08-12T19:06:07.177Z,31
2017-08-12T19:08:09.716Z,31
2017-08-12T19:10:06.754Z,31
2017-08-12T19:12:09.080Z,31
2017-08-12T19:14:06.821Z,31
2017-08-12T19:16:06.578Z,31
2017-08-12T19:18:19.247Z,31
2017-08-12T19:20:17.037Z,31
2017-08-12T19:22:09.442Z,31
2017-08-12T19:24:12.412Z,31
2017-08-12T19:26:07.154Z,31
2017-08-12T19:28:09.539Z,31
2017-08-12T19:30:07.342Z,31
2017-08-12T19:32:07.045Z,31
2017-08-12T19:34:14.676Z,31
2017-08-12T19:36:07.443Z,31
2017-08-12T19:38:07.161Z,31
2017-08-12T19:40:17.379Z,31
2017-08-12T19:42:07.090Z,31
2017-08-12T19:44:14.323Z,31
2017-08-12T19:46:07.287Z,31
2017-08-12T19:48:07.126Z,31
2017-08-12T19:50:06.886Z,31
2017-08-12T19:52:09.308Z,31
2017-08-12T19:54:07.146Z,31
2017-08-12T19:56:11.942Z,31
2017-08-12T19:58:11.890Z,31
2017-08-12T20:00:16.741Z,31
2017-08-12T20:02:11.469Z,32
2017-08-12T20:04:09.905Z,31
2017-08-12T20:06:11.662Z,32
2017-08-12T20:08:07.675Z,32
2017-08-12T20:10:09.960Z,32
2017-08-12T20:12:09.403Z,32
2017-08-12T20:14:12.407Z,32
2017-08-12T20:16:12.273Z,32
2017-08-12T20:18:07.175Z,32
2017-08-12T20:20:06.945Z,32
2017-08-12T20:22:06.828Z,32
2017-08-12T20:24:09.045Z,32
2017-08-12T20:26:06.792Z,32
2017-08-12T20:28:09.188Z,32
2017-08-12T20:30:11.956Z,32
2017-08-12T20:32:09.280Z,32
2017-08-12T20:34:14.583Z,32
2017-08-12T20:36:14.899Z,32
2017-08-12T20:38:06.621Z,32
2017-08-12T20:40:07.386Z,32
2017-08-12T20:42:09.624Z,32
2017-08-12T20:44:07.678Z,32
2017-08-12T20:46:11.953Z,32
2017-08-12T20:48:06.682Z,32
2017-08-12T20:50:06.448Z,32
2017-08-12T20:52:09.902Z,32
2017-08-12T20:54:16.941Z,32
2017-08-12T20:56:07.184Z,32
2017-08-12T20:58:10.556Z,32
2017-08-12T21:00:07.290Z,32
2017-08-12T21:02:09.572Z,32
2017-08-12T21:04:22.482Z,32
2017-08-12T21:06:07.189Z,32
2017-08-12T21:08:09.671Z,32
2017-08-12T21:10:12.604Z,32
2017-08-12T21:12:07.377Z,32
2017-08-12T21:14:07.108Z,32
2017-08-12T21:16:14.584Z,32
2017-08-12T21:18:06.723Z,32
2017-08-12T21:20:06.417Z,32
2017-08-12T21:22:25.989Z,32
2017-08-12T21:24:06.751Z,32
2017-08-12T21:26:06.535Z,32
2017-08-12T21:28:07.442Z,32
2017-08-12T21:30:10.696Z,32
2017-08-12T21:32:09.579Z,32
2017-08-12T21:34:07.400Z,32
2017-08-12T21:36:07.077Z,32
2017-08-12T21:38:06.878Z,32
2017-08-12T21:40:11.809Z,32
2017-08-12T21:42:06.557Z,32
2017-08-12T21:44:09.833Z,32
2017-08-12T21:46:06.654Z,32
2017-08-12T21:48:12.617Z,32
2017-08-12T21:50:07.371Z,32
2017-08-12T21:52:07.064Z,32
2017-08-12T21:54:11.792Z,32
2017-08-12T21:56:06.533Z,32
2017-08-12T21:58:07.476Z,32
2017-08-12T22:00:07.239Z,32
2017-08-12T22:02:11.960Z,32
2017-08-12T22:04:06.804Z,32
2017-08-12T22:06:06.472Z,32
2017-08-12T22:08:09.695Z,32
2017-08-12T22:10:06.776Z,32
2017-08-12T22:12:06.498Z,32
2017-08-12T22:14:09.236Z,32
2017-08-12T22:16:07.111Z,32
2017-08-12T22:18:07.012Z,32
2017-08-12T22:20:07.020Z,32
2017-08-12T22:22:07.007Z,32
2017-08-12T22:24:06.724Z,32
2017-08-12T22:26:09.934Z,32
2017-08-12T22:28:06.939Z,32
2017-08-12T22:30:06.659Z,32
2017-08-12T22:32:14.955Z,32
2017-08-12T22:34:06.991Z,32
2017-08-12T22:36:09.564Z,32
2017-08-12T22:38:08.330Z,32
2017-08-12T22:40:07.353Z,32
2017-08-12T22:42:07.161Z,32
2017-08-12T22:44:09.395Z,32
2017-08-12T22:46:07.575Z,32
2017-08-12T22:48:22.476Z,32
2017-08-12T22:50:07.380Z,32
2017-08-12T22:52:10.025Z,32
2017-08-12T22:54:06.797Z,32
2017-08-12T22:56:06.605Z,32
2017-08-12T22:58:07.416Z,32
2017-08-12T23:00:07.169Z,32
2017-08-12T23:02:06.911Z,32
2017-08-12T23:04:11.690Z,32
2017-08-12T23:06:06.441Z,32
2017-08-12T23:08:09.921Z,32
2017-08-12T23:10:09.382Z,32
2017-08-12T23:12:07.069Z,32
2017-08-12T23:14:06.836Z,32
2017-08-12T23:16:09.287Z,32
2017-08-12T23:18:07.212Z,32
2017-08-12T23:20:06.926Z,32
2017-08-12T23:22:09.247Z,32
2017-08-12T23:24:07.000Z,32
2017-08-12T23:26:06.802Z,32
2017-08-12T23:28:06.528Z,32
2017-08-12T23:30:07.285Z,32
2017-08-12T23:32:06.978Z,32
2017-08-12T23:34:06.982Z,32
2017-08-12T23:36:09.222Z,32
2017-08-12T23:38:06.927Z,32
2017-08-12T23:40:09.385Z,32
2017-08-12T23:42:12.181Z,32
2017-08-12T23:44:06.949Z,32
2017-08-12T23:46:09.512Z,32
2017-08-12T23:48:14.808Z,32
2017-08-12T23:50:06.544Z,32
2017-08-12T23:52:07.469Z,32
2017-08-12T23:54:07.253Z,32
2017-08-12T23:56:12.439Z,32
2017-08-12T23:58:07.208Z,32
